sensor_id;sensor_type;location;lat;lon;timestamp;temperature;humidity
9668;DHT22;4872;48.316;10.650;2022-09-21T04:12:58;6.10;99.90
9668;DHT22;4872;48.316;10.650;2022-09-21T04:15:25;6.00;99.90
9668;DHT22;4872;48.316;10.650;2022-09-21T04:17:53;6.00;99.90
9668;DHT22;4872;48.316;10.650;2022-09-21T04:20:20;5.90;99.90
9668;DHT22;4872;48.316;10.650;2022-09-21T04:22:47;5.90;99.90
9668;DHT22;4872;48.316;10.650;2022-09-21T04:25:14;5.90;99.90
9668;DHT22;4872;48.316;10.650;2022-09-21T04:27:42;6.00;99.90
9668;DHT22;4872;48.316;10.650;2022-09-21T04:30:12;5.90;99.90
9668;DHT22;4872;48.316;10.650;2022-09-21T04:32:39;5.80;99.90
9668;DHT22;4872;48.316;10.650;2022-09-21T04:35:07;5.80;99.90
9668;DHT22;4872;48.316;10.650;2022-09-21T04:37:34;5.70;99.90
9668;DHT22;4872;48.316;10.650;2022-09-21T04:40:01;5.60;99.90
9668;DHT22;4872;48.316;10.650;2022-09-21T04:42:28;5.60;99.90
9668;DHT22;4872;48.316;10.650;2022-09-21T04:44:55;5.50;99.90
9668;DHT22;4872;48.316;10.650;2022-09-21T04:47:23;5.50;99.90
9668;DHT22;4872;48.316;10.650;2022-09-21T04:49:50;5.50;99.90
9668;DHT22;4872;48.316;10.650;2022-09-21T04:52:18;5.50;99.90
9668;DHT22;4872;48.316;10.650;2022-09-21T04:54:45;5.50;99.90
9668;DHT22;4872;48.316;10.650;2022-09-21T04:57:12;5.50;99.90
9668;DHT22;4872;48.316;10.650;2022-09-21T04:59:39;5.50;99.90
9668;DHT22;4872;48.316;10.650;2022-09-21T05:02:06;5.50;99.90
9668;DHT22;4872;48.316;10.650;2022-09-21T05:04:34;5.40;99.90
9668;DHT22;4872;48.316;10.650;2022-09-21T05:07:00;5.40;99.90
9668;DHT22;4872;48.316;10.650;2022-09-21T05:09:27;5.50;99.90
9668;DHT22;4872;48.316;10.650;2022-09-21T05:12:11;5.50;99.90
9668;DHT22;4872;48.316;10.650;2022-09-21T05:14:38;5.50;99.90
9668;DHT22;4872;48.316;10.650;2022-09-21T05:17:05;5.50;99.90
9668;DHT22;4872;48.316;10.650;2022-09-21T05:19:33;5.60;99.90
9668;DHT22;4872;48.316;10.650;2022-09-21T05:22:00;5.60;99.90
9668;DHT22;4872;48.316;10.650;2022-09-21T05:24:26;5.60;99.90
9668;DHT22;4872;48.316;10.650;2022-09-21T05:26:53;5.60;99.90
9668;DHT22;4872;48.316;10.650;2022-09-21T05:29:20;5.60;99.90
9668;DHT22;4872;48.316;10.650;2022-09-21T05:31:50;5.60;99.90
9668;DHT22;4872;48.316;10.650;2022-09-21T05:37:11;5.60;99.90
9668;DHT22;4872;48.316;10.650;2022-09-21T05:39:45;5.70;99.90
9668;DHT22;4872;48.316;10.650;2022-09-21T05:42:13;5.70;99.90
9668;DHT22;4872;48.316;10.650;2022-09-21T05:44:40;5.70;99.90
9668;DHT22;4872;48.316;10.650;2022-09-21T05:47:17;5.70;99.90
9668;DHT22;4872;48.316;10.650;2022-09-21T05:49:53;5.80;99.90
9668;DHT22;4872;48.316;10.650;2022-09-21T05:52:33;5.80;99.90
9668;DHT22;4872;48.316;10.650;2022-09-21T05:55:09;5.80;99.90
9668;DHT22;4872;48.316;10.650;2022-09-21T05:57:45;5.90;99.90
9668;DHT22;4872;48.316;10.650;2022-09-21T06:00:17;5.90;99.90
9668;DHT22;4872;48.316;10.650;2022-09-21T06:02:56;5.90;99.90
9668;DHT22;4872;48.316;10.650;2022-09-21T06:05:24;5.90;99.90
9668;DHT22;4872;48.316;10.650;2022-09-21T06:07:53;5.90;99.90
9668;DHT22;4872;48.316;10.650;2022-09-21T06:10:19;6.00;99.90
9668;DHT22;4872;48.316;10.650;2022-09-21T06:12:46;6.00;99.90
9668;DHT22;4872;48.316;10.650;2022-09-21T06:15:14;6.00;99.90
9668;DHT22;4872;48.316;10.650;2022-09-21T06:17:41;5.90;99.90
9668;DHT22;4872;48.316;10.650;2022-09-21T06:20:09;5.90;99.90
9668;DHT22;4872;48.316;10.650;2022-09-21T06:22:36;5.90;99.90
9668;DHT22;4872;48.316;10.650;2022-09-21T06:25:04;5.90;99.90
9668;DHT22;4872;48.316;10.650;2022-09-21T06:27:31;5.90;99.90
9668;DHT22;4872;48.316;10.650;2022-09-21T06:29:58;5.90;99.90
9668;DHT22;4872;48.316;10.650;2022-09-21T06:32:25;5.90;99.90
9668;DHT22;4872;48.316;10.650;2022-09-21T06:34:52;5.90;99.90
9668;DHT22;4872;48.316;10.650;2022-09-21T06:37:18;5.90;99.90
9668;DHT22;4872;48.316;10.650;2022-09-21T06:39:45;5.90;99.90
9668;DHT22;4872;48.316;10.650;2022-09-21T06:42:13;6.00;99.90
9668;DHT22;4872;48.316;10.650;2022-09-21T06:44:40;6.00;99.90
9668;DHT22;4872;48.316;10.650;2022-09-21T06:47:06;6.20;99.90
9668;DHT22;4872;48.316;10.650;2022-09-21T06:49:33;6.30;99.90
9668;DHT22;4872;48.316;10.650;2022-09-21T06:52:00;6.40;99.90
9668;DHT22;4872;48.316;10.650;2022-09-21T06:54:28;6.30;99.90
9668;DHT22;4872;48.316;10.650;2022-09-21T06:57:02;6.40;99.90
9668;DHT22;4872;48.316;10.650;2022-09-21T06:59:38;6.40;99.90
9668;DHT22;4872;48.316;10.650;2022-09-21T07:02:05;6.50;99.90
9668;DHT22;4872;48.316;10.650;2022-09-21T07:04:32;6.50;99.90
9668;DHT22;4872;48.316;10.650;2022-09-21T07:06:59;6.60;99.90
9668;DHT22;4872;48.316;10.650;2022-09-21T07:09:25;6.70;99.90
9668;DHT22;4872;48.316;10.650;2022-09-21T07:11:52;6.70;99.90
9668;DHT22;4872;48.316;10.650;2022-09-21T07:14:20;6.80;99.90
9668;DHT22;4872;48.316;10.650;2022-09-21T07:16:49;6.80;99.90
9668;DHT22;4872;48.316;10.650;2022-09-21T07:19:15;6.90;99.90
9668;DHT22;4872;48.316;10.650;2022-09-21T07:21:42;7.00;99.90
9668;DHT22;4872;48.316;10.650;2022-09-21T07:24:09;7.10;99.90
9668;DHT22;4872;48.316;10.650;2022-09-21T07:26:36;7.20;99.90
9668;DHT22;4872;48.316;10.650;2022-09-21T07:29:02;7.30;99.90
9668;DHT22;4872;48.316;10.650;2022-09-21T07:31:29;7.30;99.90
9668;DHT22;4872;48.316;10.650;2022-09-21T07:33:57;7.40;99.90
9668;DHT22;4872;48.316;10.650;2022-09-21T07:36:24;7.50;99.90
9668;DHT22;4872;48.316;10.650;2022-09-21T07:38:52;7.60;99.90
9668;DHT22;4872;48.316;10.650;2022-09-21T07:41:19;7.70;99.90
9668;DHT22;4872;48.316;10.650;2022-09-21T07:43:47;7.80;99.90
9668;DHT22;4872;48.316;10.650;2022-09-21T07:46:14;7.80;99.90
9668;DHT22;4872;48.316;10.650;2022-09-21T07:48:41;7.80;99.90
9668;DHT22;4872;48.316;10.650;2022-09-21T07:51:11;7.90;99.90
9668;DHT22;4872;48.316;10.650;2022-09-21T07:53:39;8.00;99.90
9668;DHT22;4872;48.316;10.650;2022-09-21T07:56:08;8.10;99.90
9668;DHT22;4872;48.316;10.650;2022-09-21T07:58:35;8.10;99.90
9668;DHT22;4872;48.316;10.650;2022-09-21T08:01:20;8.20;99.90
9668;DHT22;4872;48.316;10.650;2022-09-21T08:03:48;8.30;99.90
9668;DHT22;4872;48.316;10.650;2022-09-21T08:06:16;8.40;99.90
9668;DHT22;4872;48.316;10.650;2022-09-21T08:08:43;8.50;99.90
9668;DHT22;4872;48.316;10.650;2022-09-21T08:11:13;8.60;99.90
9668;DHT22;4872;48.316;10.650;2022-09-21T08:13:40;8.70;99.90
9668;DHT22;4872;48.316;10.650;2022-09-21T08:16:06;8.90;99.90
9668;DHT22;4872;48.316;10.650;2022-09-21T08:18:35;9.00;99.90
9668;DHT22;4872;48.316;10.650;2022-09-21T08:21:02;9.20;99.90
9668;DHT22;4872;48.316;10.650;2022-09-21T08:23:30;9.30;99.90
9668;DHT22;4872;48.316;10.650;2022-09-21T08:25:58;9.40;99.90
9668;DHT22;4872;48.316;10.650;2022-09-21T08:28:27;9.50;99.90
9668;DHT22;4872;48.316;10.650;2022-09-21T08:30:58;9.70;99.90
9668;DHT22;4872;48.316;10.650;2022-09-21T08:33:25;9.80;99.90
9668;DHT22;4872;48.316;10.650;2022-09-21T08:35:52;9.90;99.90
9668;DHT22;4872;48.316;10.650;2022-09-21T08:38:19;10.10;99.90
9668;DHT22;4872;48.316;10.650;2022-09-21T08:40:48;10.20;99.90
9668;DHT22;4872;48.316;10.650;2022-09-21T08:43:20;10.30;99.90
9668;DHT22;4872;48.316;10.650;2022-09-21T08:45:49;10.40;99.90
9668;DHT22;4872;48.316;10.650;2022-09-21T08:48:20;10.50;99.90
9668;DHT22;4872;48.316;10.650;2022-09-21T08:50:51;10.70;99.90
9668;DHT22;4872;48.316;10.650;2022-09-21T08:53:20;10.70;99.90
9668;DHT22;4872;48.316;10.650;2022-09-21T08:55:50;10.80;99.90
9668;DHT22;4872;48.316;10.650;2022-09-21T08:58:21;10.90;99.90
9668;DHT22;4872;48.316;10.650;2022-09-21T09:00:53;10.90;99.90
9668;DHT22;4872;48.316;10.650;2022-09-21T09:03:37;11.10;99.90
9668;DHT22;4872;48.316;10.650;2022-09-21T09:06:15;11.30;99.90
9668;DHT22;4872;48.316;10.650;2022-09-21T09:08:54;11.50;99.90
9668;DHT22;4872;48.316;10.650;2022-09-21T09:11:36;11.60;99.90
9668;DHT22;4872;48.316;10.650;2022-09-21T09:14:13;11.60;99.90
9668;DHT22;4872;48.316;10.650;2022-09-21T09:16:51;11.60;99.90
9668;DHT22;4872;48.316;10.650;2022-09-21T09:19:25;11.70;99.90
9668;DHT22;4872;48.316;10.650;2022-09-21T09:21:54;11.80;99.90
9668;DHT22;4872;48.316;10.650;2022-09-21T09:24:31;11.90;99.90
9668;DHT22;4872;48.316;10.650;2022-09-21T09:27:02;12.10;99.90
9668;DHT22;4872;48.316;10.650;2022-09-21T09:29:36;12.20;99.90
9668;DHT22;4872;48.316;10.650;2022-09-21T09:32:11;12.30;99.90
9668;DHT22;4872;48.316;10.650;2022-09-21T09:34:41;12.50;99.90
9668;DHT22;4872;48.316;10.650;2022-09-21T09:37:12;12.60;99.90
9668;DHT22;4872;48.316;10.650;2022-09-21T09:39:40;12.80;99.90
9668;DHT22;4872;48.316;10.650;2022-09-21T09:42:29;12.90;99.90
9668;DHT22;4872;48.316;10.650;2022-09-21T09:45:12;13.00;99.90
9668;DHT22;4872;48.316;10.650;2022-09-21T09:47:50;13.10;99.70
9668;DHT22;4872;48.316;10.650;2022-09-21T09:50:26;13.10;99.40
9668;DHT22;4872;48.316;10.650;2022-09-21T09:52:58;13.20;99.40
9668;DHT22;4872;48.316;10.650;2022-09-21T09:55:30;13.20;99.30
9668;DHT22;4872;48.316;10.650;2022-09-21T09:58:01;13.30;98.40
9668;DHT22;4872;48.316;10.650;2022-09-21T10:00:28;13.30;98.00
9668;DHT22;4872;48.316;10.650;2022-09-21T10:02:56;13.30;97.50
9668;DHT22;4872;48.316;10.650;2022-09-21T10:05:31;13.40;97.10
9668;DHT22;4872;48.316;10.650;2022-09-21T10:07:58;13.40;97.50
9668;DHT22;4872;48.316;10.650;2022-09-21T10:10:33;13.40;97.80
9668;DHT22;4872;48.316;10.650;2022-09-21T10:13:22;13.50;97.30
9668;DHT22;4872;48.316;10.650;2022-09-21T10:15:51;13.50;97.50
9668;DHT22;4872;48.316;10.650;2022-09-21T10:18:21;13.60;97.70
9668;DHT22;4872;48.316;10.650;2022-09-21T10:20:57;13.70;97.20
9668;DHT22;4872;48.316;10.650;2022-09-21T10:23:24;13.80;97.20
9668;DHT22;4872;48.316;10.650;2022-09-21T10:26:00;13.90;97.50
9668;DHT22;4872;48.316;10.650;2022-09-21T10:28:30;14.00;97.10
9668;DHT22;4872;48.316;10.650;2022-09-21T10:31:15;14.10;97.00
9668;DHT22;4872;48.316;10.650;2022-09-21T10:33:47;14.20;97.60
9668;DHT22;4872;48.316;10.650;2022-09-21T10:36:26;14.30;97.60
9668;DHT22;4872;48.316;10.650;2022-09-21T10:38:53;14.40;97.20
9668;DHT22;4872;48.316;10.650;2022-09-21T10:41:20;14.50;96.90
9668;DHT22;4872;48.316;10.650;2022-09-21T10:43:49;14.50;96.50
9668;DHT22;4872;48.316;10.650;2022-09-21T10:46:16;14.60;96.50
9668;DHT22;4872;48.316;10.650;2022-09-21T10:48:44;14.60;96.10
9668;DHT22;4872;48.316;10.650;2022-09-21T10:51:24;14.60;96.00
9668;DHT22;4872;48.316;10.650;2022-09-21T10:53:53;14.70;96.00
9668;DHT22;4872;48.316;10.650;2022-09-21T10:56:20;14.70;95.20
9668;DHT22;4872;48.316;10.650;2022-09-21T10:59:11;14.70;95.40
9668;DHT22;4872;48.316;10.650;2022-09-21T11:01:43;14.70;94.30
9668;DHT22;4872;48.316;10.650;2022-09-21T11:04:13;14.50;93.90
9668;DHT22;4872;48.316;10.650;2022-09-21T11:06:44;14.30;94.10
9668;DHT22;4872;48.316;10.650;2022-09-21T11:09:15;14.10;94.60
9668;DHT22;4872;48.316;10.650;2022-09-21T11:11:49;14.10;94.90
9668;DHT22;4872;48.316;10.650;2022-09-21T11:14:31;14.10;94.70
9668;DHT22;4872;48.316;10.650;2022-09-21T11:17:06;14.00;93.80
9668;DHT22;4872;48.316;10.650;2022-09-21T11:19:36;14.00;93.60
9668;DHT22;4872;48.316;10.650;2022-09-21T11:22:07;14.00;93.70
9668;DHT22;4872;48.316;10.650;2022-09-21T11:24:39;14.00;94.10
9668;DHT22;4872;48.316;10.650;2022-09-21T11:27:13;14.10;94.20
9668;DHT22;4872;48.316;10.650;2022-09-21T11:29:51;14.30;93.70
9668;DHT22;4872;48.316;10.650;2022-09-21T11:32:45;14.30;93.90
9668;DHT22;4872;48.316;10.650;2022-09-21T11:35:23;14.40;94.20
9668;DHT22;4872;48.316;10.650;2022-09-21T11:38:03;14.50;94.20
9668;DHT22;4872;48.316;10.650;2022-09-21T11:40:46;14.60;93.70
9668;DHT22;4872;48.316;10.650;2022-09-21T11:43:27;14.60;93.40
9668;DHT22;4872;48.316;10.650;2022-09-21T11:46:15;14.70;94.40
9668;DHT22;4872;48.316;10.650;2022-09-21T11:48:56;14.90;95.10
9668;DHT22;4872;48.316;10.650;2022-09-21T11:51:35;15.10;94.50
9668;DHT22;4872;48.316;10.650;2022-09-21T11:54:19;15.30;94.40
9668;DHT22;4872;48.316;10.650;2022-09-21T11:56:49;15.50;94.50
9668;DHT22;4872;48.316;10.650;2022-09-21T11:59:33;15.60;93.50
9668;DHT22;4872;48.316;10.650;2022-09-21T12:02:40;15.60;93.60
9668;DHT22;4872;48.316;10.650;2022-09-21T12:05:21;15.50;93.20
9668;DHT22;4872;48.316;10.650;2022-09-21T12:08:10;15.40;93.20
9668;DHT22;4872;48.316;10.650;2022-09-21T12:10:49;15.30;93.00
9668;DHT22;4872;48.316;10.650;2022-09-21T12:13:26;15.40;93.00
9668;DHT22;4872;48.316;10.650;2022-09-21T12:16:02;15.40;93.00
9668;DHT22;4872;48.316;10.650;2022-09-21T12:18:37;15.40;92.40
9668;DHT22;4872;48.316;10.650;2022-09-21T12:21:12;15.50;92.60
9668;DHT22;4872;48.316;10.650;2022-09-21T12:23:42;15.70;92.90
9668;DHT22;4872;48.316;10.650;2022-09-21T12:26:13;16.00;92.80
9668;DHT22;4872;48.316;10.650;2022-09-21T12:28:43;16.40;93.80
9668;DHT22;4872;48.316;10.650;2022-09-21T12:31:14;16.60;93.10
9668;DHT22;4872;48.316;10.650;2022-09-21T12:33:48;16.70;91.80
9668;DHT22;4872;48.316;10.650;2022-09-21T12:36:19;16.60;90.50
9668;DHT22;4872;48.316;10.650;2022-09-21T12:38:53;16.40;90.60
9668;DHT22;4872;48.316;10.650;2022-09-21T12:41:29;16.30;90.60
9668;DHT22;4872;48.316;10.650;2022-09-21T12:44:03;16.40;91.50
9668;DHT22;4872;48.316;10.650;2022-09-21T12:46:35;16.50;91.10
9668;DHT22;4872;48.316;10.650;2022-09-21T12:49:11;16.80;91.00
9668;DHT22;4872;48.316;10.650;2022-09-21T12:51:41;16.80;90.70
9668;DHT22;4872;48.316;10.650;2022-09-21T12:54:18;16.80;90.30
9668;DHT22;4872;48.316;10.650;2022-09-21T12:56:52;16.70;89.50
9668;DHT22;4872;48.316;10.650;2022-09-21T12:59:29;16.40;89.00
9668;DHT22;4872;48.316;10.650;2022-09-21T13:02:03;16.20;88.80
9668;DHT22;4872;48.316;10.650;2022-09-21T13:04:47;16.30;88.70
9668;DHT22;4872;48.316;10.650;2022-09-21T13:07:49;16.60;88.90
9668;DHT22;4872;48.316;10.650;2022-09-21T13:10:34;17.10;88.80
9668;DHT22;4872;48.316;10.650;2022-09-21T13:13:05;17.50;87.60
9668;DHT22;4872;48.316;10.650;2022-09-21T13:15:42;17.80;85.30
9668;DHT22;4872;48.316;10.650;2022-09-21T13:18:17;18.20;84.20
9668;DHT22;4872;48.316;10.650;2022-09-21T13:20:47;18.40;83.40
9668;DHT22;4872;48.316;10.650;2022-09-21T13:23:19;18.80;83.00
9668;DHT22;4872;48.316;10.650;2022-09-21T13:25:48;19.20;81.40
9668;DHT22;4872;48.316;10.650;2022-09-21T13:28:19;19.40;79.60
9668;DHT22;4872;48.316;10.650;2022-09-21T13:33:39;19.90;76.50
9668;DHT22;4872;48.316;10.650;2022-09-21T13:36:30;20.10;75.10
9668;DHT22;4872;48.316;10.650;2022-09-21T13:39:14;20.50;76.50
9668;DHT22;4872;48.316;10.650;2022-09-21T13:41:41;20.90;76.30
9668;DHT22;4872;48.316;10.650;2022-09-21T13:44:35;20.90;73.70
9668;DHT22;4872;48.316;10.650;2022-09-21T13:47:03;21.10;72.00
9668;DHT22;4872;48.316;10.650;2022-09-21T13:52:37;20.50;69.90
9668;DHT22;4872;48.316;10.650;2022-09-21T13:55:21;20.70;69.80
9668;DHT22;4872;48.316;10.650;2022-09-21T13:57:51;21.40;71.00
9668;DHT22;4872;48.316;10.650;2022-09-21T14:00:30;21.80;69.00
9668;DHT22;4872;48.316;10.650;2022-09-21T14:03:01;22.20;69.20
9668;DHT22;4872;48.316;10.650;2022-09-21T14:05:32;22.00;66.30
9668;DHT22;4872;48.316;10.650;2022-09-21T14:08:04;21.50;65.60
9668;DHT22;4872;48.316;10.650;2022-09-21T14:10:34;21.10;65.30
9668;DHT22;4872;48.316;10.650;2022-09-21T14:13:06;21.00;62.90
9668;DHT22;4872;48.316;10.650;2022-09-21T14:15:48;21.00;62.20
9668;DHT22;4872;48.316;10.650;2022-09-21T14:18:35;21.20;61.80
9668;DHT22;4872;48.316;10.650;2022-09-21T14:21:11;21.70;62.60
9668;DHT22;4872;48.316;10.650;2022-09-21T14:24:16;22.30;64.60
9668;DHT22;4872;48.316;10.650;2022-09-21T14:26:52;22.90;63.00
9668;DHT22;4872;48.316;10.650;2022-09-21T14:29:23;23.30;60.10
9668;DHT22;4872;48.316;10.650;2022-09-21T14:31:53;23.60;60.00
9668;DHT22;4872;48.316;10.650;2022-09-21T14:34:23;23.50;59.40
9668;DHT22;4872;48.316;10.650;2022-09-21T14:36:54;23.00;58.80
9668;DHT22;4872;48.316;10.650;2022-09-21T14:39:27;22.30;59.20
9668;DHT22;4872;48.316;10.650;2022-09-21T14:42:00;21.90;59.30
9668;DHT22;4872;48.316;10.650;2022-09-21T14:44:30;22.00;58.40
9668;DHT22;4872;48.316;10.650;2022-09-21T14:47:09;22.40;58.90
9668;DHT22;4872;48.316;10.650;2022-09-21T14:50:01;22.90;58.30
9668;DHT22;4872;48.316;10.650;2022-09-21T14:52:39;23.50;57.20
9668;DHT22;4872;48.316;10.650;2022-09-21T14:55:16;23.90;56.40
9668;DHT22;4872;48.316;10.650;2022-09-21T14:58:08;24.20;55.60
9668;DHT22;4872;48.316;10.650;2022-09-21T15:00:40;24.50;54.80
9668;DHT22;4872;48.316;10.650;2022-09-21T15:03:24;24.80;54.30
9668;DHT22;4872;48.316;10.650;2022-09-21T15:06:02;24.90;54.00
9668;DHT22;4872;48.316;10.650;2022-09-21T15:09:04;24.90;53.30
9668;DHT22;4872;48.316;10.650;2022-09-21T15:11:58;25.10;52.70
9668;DHT22;4872;48.316;10.650;2022-09-21T15:14:32;25.00;52.10
9668;DHT22;4872;48.316;10.650;2022-09-21T15:16:59;24.50;51.10
9668;DHT22;4872;48.316;10.650;2022-09-21T15:19:43;24.60;51.10
9668;DHT22;4872;48.316;10.650;2022-09-21T15:22:15;24.60;51.40
9668;DHT22;4872;48.316;10.650;2022-09-21T15:24:48;24.40;51.40
9668;DHT22;4872;48.316;10.650;2022-09-21T15:27:18;24.40;52.30
9668;DHT22;4872;48.316;10.650;2022-09-21T15:29:47;24.30;51.10
9668;DHT22;4872;48.316;10.650;2022-09-21T15:32:24;24.20;50.70
9668;DHT22;4872;48.316;10.650;2022-09-21T15:34:57;23.90;48.70
9668;DHT22;4872;48.316;10.650;2022-09-21T15:37:26;23.70;48.60
9668;DHT22;4872;48.316;10.650;2022-09-21T15:39:59;23.50;48.80
9668;DHT22;4872;48.316;10.650;2022-09-21T15:42:28;23.20;49.10
9668;DHT22;4872;48.316;10.650;2022-09-21T15:45:09;22.80;49.20
9668;DHT22;4872;48.316;10.650;2022-09-21T15:47:38;22.10;49.90
9668;DHT22;4872;48.316;10.650;2022-09-21T15:50:11;21.70;50.90
9668;DHT22;4872;48.316;10.650;2022-09-21T15:52:40;20.90;50.20
9668;DHT22;4872;48.316;10.650;2022-09-21T15:55:14;20.40;50.90
9668;DHT22;4872;48.316;10.650;2022-09-21T15:57:48;19.70;52.00
9668;DHT22;4872;48.316;10.650;2022-09-21T16:00:23;19.20;52.70
9668;DHT22;4872;48.316;10.650;2022-09-21T16:03:05;18.70;52.50
9668;DHT22;4872;48.316;10.650;2022-09-21T16:05:42;18.40;53.80
9668;DHT22;4872;48.316;10.650;2022-09-21T16:08:25;18.00;55.20
9668;DHT22;4872;48.316;10.650;2022-09-21T16:10:52;17.60;56.30
9668;DHT22;4872;48.316;10.650;2022-09-21T16:13:37;17.30;57.20
9668;DHT22;4872;48.316;10.650;2022-09-21T16:16:21;17.00;56.40
9668;DHT22;4872;48.316;10.650;2022-09-21T16:18:49;16.70;57.10
9668;DHT22;4872;48.316;10.650;2022-09-21T16:21:20;16.50;57.80
9668;DHT22;4872;48.316;10.650;2022-09-21T16:23:49;16.20;59.00
9668;DHT22;4872;48.316;10.650;2022-09-21T16:26:26;16.00;59.20
9668;DHT22;4872;48.316;10.650;2022-09-21T16:29:19;15.80;59.90
9668;DHT22;4872;48.316;10.650;2022-09-21T16:31:48;15.60;61.80
9668;DHT22;4872;48.316;10.650;2022-09-21T16:34:21;15.50;61.70
9668;DHT22;4872;48.316;10.650;2022-09-21T16:36:49;15.40;61.30
9668;DHT22;4872;48.316;10.650;2022-09-21T16:39:17;15.20;61.60
9668;DHT22;4872;48.316;10.650;2022-09-21T16:41:50;15.10;61.70
9668;DHT22;4872;48.316;10.650;2022-09-21T16:44:20;14.90;61.90
9668;DHT22;4872;48.316;10.650;2022-09-21T16:46:53;14.90;62.60
9668;DHT22;4872;48.316;10.650;2022-09-21T16:49:21;14.70;63.30
9668;DHT22;4872;48.316;10.650;2022-09-21T16:51:50;14.60;63.80
9668;DHT22;4872;48.316;10.650;2022-09-21T16:54:19;14.50;64.70
9668;DHT22;4872;48.316;10.650;2022-09-21T16:56:51;14.40;65.00
9668;DHT22;4872;48.316;10.650;2022-09-21T16:59:20;14.30;65.60
9668;DHT22;4872;48.316;10.650;2022-09-21T17:01:51;14.20;66.90
9668;DHT22;4872;48.316;10.650;2022-09-21T17:04:19;14.00;67.40
9668;DHT22;4872;48.316;10.650;2022-09-21T17:06:47;13.90;67.80
9668;DHT22;4872;48.316;10.650;2022-09-21T17:09:20;13.80;69.00
9668;DHT22;4872;48.316;10.650;2022-09-21T17:11:48;13.70;68.90
9668;DHT22;4872;48.316;10.650;2022-09-21T17:14:16;13.50;69.20
9668;DHT22;4872;48.316;10.650;2022-09-21T17:16:47;13.50;69.70
9668;DHT22;4872;48.316;10.650;2022-09-21T17:19:14;13.40;69.70
9668;DHT22;4872;48.316;10.650;2022-09-21T17:21:41;13.30;70.00
9668;DHT22;4872;48.316;10.650;2022-09-21T17:24:10;13.20;70.50
9668;DHT22;4872;48.316;10.650;2022-09-21T17:26:36;13.00;71.00
9668;DHT22;4872;48.316;10.650;2022-09-21T17:29:12;12.90;71.40
9668;DHT22;4872;48.316;10.650;2022-09-21T17:31:40;12.80;73.20
9668;DHT22;4872;48.316;10.650;2022-09-21T17:34:09;12.60;73.60
9668;DHT22;4872;48.316;10.650;2022-09-21T17:36:37;12.50;73.60
9668;DHT22;4872;48.316;10.650;2022-09-21T17:39:04;12.50;74.10
9668;DHT22;4872;48.316;10.650;2022-09-21T17:41:37;12.30;74.00
9668;DHT22;4872;48.316;10.650;2022-09-21T17:44:11;12.20;74.30
9668;DHT22;4872;48.316;10.650;2022-09-21T17:46:45;12.20;74.80
9668;DHT22;4872;48.316;10.650;2022-09-21T17:49:14;12.10;75.20
9668;DHT22;4872;48.316;10.650;2022-09-21T17:51:41;12.00;76.10
9668;DHT22;4872;48.316;10.650;2022-09-21T17:54:26;12.00;76.30
9668;DHT22;4872;48.316;10.650;2022-09-21T17:56:57;11.90;76.60
9668;DHT22;4872;48.316;10.650;2022-09-21T17:59:29;11.90;76.70
9668;DHT22;4872;48.316;10.650;2022-09-21T18:01:57;11.80;76.70
9668;DHT22;4872;48.316;10.650;2022-09-21T18:04:27;11.70;76.50
9668;DHT22;4872;48.316;10.650;2022-09-21T18:06:56;11.70;77.00
9668;DHT22;4872;48.316;10.650;2022-09-21T18:09:23;11.60;77.00
9668;DHT22;4872;48.316;10.650;2022-09-21T18:12:05;11.60;77.20
9668;DHT22;4872;48.316;10.650;2022-09-21T18:14:45;11.50;78.20
9668;DHT22;4872;48.316;10.650;2022-09-21T18:17:31;11.50;79.20
9668;DHT22;4872;48.316;10.650;2022-09-21T18:20:15;11.40;79.50
9668;DHT22;4872;48.316;10.650;2022-09-21T18:22:52;11.40;81.00
9668;DHT22;4872;48.316;10.650;2022-09-21T18:25:26;11.30;81.40
9668;DHT22;4872;48.316;10.650;2022-09-21T18:27:56;11.20;81.10
9668;DHT22;4872;48.316;10.650;2022-09-21T18:30:24;11.10;81.00
9668;DHT22;4872;48.316;10.650;2022-09-21T18:32:59;11.10;81.30
9668;DHT22;4872;48.316;10.650;2022-09-21T18:35:42;11.00;81.50
9668;DHT22;4872;48.316;10.650;2022-09-21T18:38:16;11.00;81.30
9668;DHT22;4872;48.316;10.650;2022-09-21T18:40:59;10.90;81.20
9668;DHT22;4872;48.316;10.650;2022-09-21T18:43:41;10.90;81.20
9668;DHT22;4872;48.316;10.650;2022-09-21T18:46:12;10.80;81.50
9668;DHT22;4872;48.316;10.650;2022-09-21T18:48:50;10.80;81.70
9668;DHT22;4872;48.316;10.650;2022-09-21T18:51:25;10.90;82.50
9668;DHT22;4872;48.316;10.650;2022-09-21T18:53:54;10.80;83.00
9668;DHT22;4872;48.316;10.650;2022-09-21T18:56:21;10.70;82.90
9668;DHT22;4872;48.316;10.650;2022-09-21T18:58:49;10.70;83.50
9668;DHT22;4872;48.316;10.650;2022-09-21T19:01:16;10.70;83.40
9668;DHT22;4872;48.316;10.650;2022-09-21T19:03:46;10.60;83.50
9668;DHT22;4872;48.316;10.650;2022-09-21T19:06:46;10.60;83.70
9668;DHT22;4872;48.316;10.650;2022-09-21T19:09:34;10.50;83.20
9668;DHT22;4872;48.316;10.650;2022-09-21T19:12:13;10.50;83.60
9668;DHT22;4872;48.316;10.650;2022-09-21T19:14:50;10.50;84.30
9668;DHT22;4872;48.316;10.650;2022-09-21T19:17:30;10.40;85.20
9668;DHT22;4872;48.316;10.650;2022-09-21T19:20:18;10.40;85.70
9668;DHT22;4872;48.316;10.650;2022-09-21T19:22:54;10.30;86.60
9668;DHT22;4872;48.316;10.650;2022-09-21T19:25:30;10.20;86.50
9668;DHT22;4872;48.316;10.650;2022-09-21T19:28:02;10.20;86.60
9668;DHT22;4872;48.316;10.650;2022-09-21T19:30:32;10.20;87.10
9668;DHT22;4872;48.316;10.650;2022-09-21T19:33:01;10.10;87.60
9668;DHT22;4872;48.316;10.650;2022-09-21T19:35:32;10.10;87.00
9668;DHT22;4872;48.316;10.650;2022-09-21T19:38:02;10.10;87.20
9668;DHT22;4872;48.316;10.650;2022-09-21T19:40:31;10.00;87.40
9668;DHT22;4872;48.316;10.650;2022-09-21T19:43:08;10.00;87.50
9668;DHT22;4872;48.316;10.650;2022-09-21T19:45:43;10.00;88.30
9668;DHT22;4872;48.316;10.650;2022-09-21T19:48:13;9.90;89.40
9668;DHT22;4872;48.316;10.650;2022-09-21T19:50:44;9.90;89.50
9668;DHT22;4872;48.316;10.650;2022-09-21T19:53:13;9.80;89.80
9668;DHT22;4872;48.316;10.650;2022-09-21T19:55:59;9.80;89.80
9668;DHT22;4872;48.316;10.650;2022-09-21T19:58:44;9.70;90.00
9668;DHT22;4872;48.316;10.650;2022-09-21T20:01:30;9.70;90.10
9668;DHT22;4872;48.316;10.650;2022-09-21T20:04:00;9.70;90.20
9668;DHT22;4872;48.316;10.650;2022-09-21T20:06:33;9.70;90.50
9668;DHT22;4872;48.316;10.650;2022-09-21T20:09:06;9.60;90.60
9668;DHT22;4872;48.316;10.650;2022-09-21T20:11:42;9.60;90.60
9668;DHT22;4872;48.316;10.650;2022-09-21T20:14:21;9.60;90.70
9668;DHT22;4872;48.316;10.650;2022-09-21T20:16:51;9.60;91.00
9668;DHT22;4872;48.316;10.650;2022-09-21T20:19:27;9.60;91.10
9668;DHT22;4872;48.316;10.650;2022-09-21T20:21:58;9.50;91.30
9668;DHT22;4872;48.316;10.650;2022-09-21T20:24:38;9.50;91.40
9668;DHT22;4872;48.316;10.650;2022-09-21T20:27:19;9.40;91.40
9668;DHT22;4872;48.316;10.650;2022-09-21T20:29:47;9.30;91.40
9668;DHT22;4872;48.316;10.650;2022-09-21T20:32:14;9.40;91.50
9668;DHT22;4872;48.316;10.650;2022-09-21T20:34:41;9.30;91.60
9668;DHT22;4872;48.316;10.650;2022-09-21T20:37:10;9.30;91.80
9668;DHT22;4872;48.316;10.650;2022-09-21T20:39:38;9.30;91.90
9668;DHT22;4872;48.316;10.650;2022-09-21T20:42:14;9.30;92.10
9668;DHT22;4872;48.316;10.650;2022-09-21T20:44:42;9.20;92.10
9668;DHT22;4872;48.316;10.650;2022-09-21T20:47:09;9.20;92.10
9668;DHT22;4872;48.316;10.650;2022-09-21T20:49:36;9.20;92.30